Terminal Aerodrome Forecast
Issued by NWS

Home | Current Version | Previous Version | Graphics & Text | Print | Product List | Glossary On
Versions: 1 2 3 4 5 6 7 8 9 10 11 12 13 14 15 16
000
FTUS43 KICT 130500 AAA
TAFHUT
TAF AMD
KHUT 130549Z 1306/1406 18009KT P6SM VCTS SCT070CB BKN090
     FM131200 36010KT P6SM BKN100
     FM132000 06007KT P6SM SCT100=

USA.gov is the U.S. government's official web portal to all federal, state and local government web resources and services.